Time;durP1;ratioP1;P1;durP2;ratioP2;P2;SDS_P1;SDS_P2;PMS_P1;PMS_P2;Temp;Humidity;BMP_temperature;BMP_pressure;BME280_temperature;BME280_humidity;BME280_pressure;Samples;Min_cycle;Max_cycle;Signal;HPM_P1;HPM_P2
2022/09/17 00:00:46;;;;;;;26.83;4.67;;;12.40;99.90;;;;;;5095378;28;20161;-75
2022/09/17 00:03:15;;;;;;;19.27;5.73;;;12.50;99.90;;;;;;5095355;28;20794;-69
2022/09/17 00:05:42;;;;;;;15.17;3.43;;;12.50;99.90;;;;;;5095034;28;20412;-68
2022/09/17 00:08:12;;;;;;;6.67;3.00;;;12.50;99.90;;;;;;5094369;28;20420;-77
2022/09/17 00:10:41;;;;;;;10.40;3.43;;;12.50;99.90;;;;;;5094452;28;21005;-70
2022/09/17 00:13:08;;;;;;;16.70;3.60;;;12.50;99.90;;;;;;5095174;28;20423;-70
2022/09/17 00:15:45;;;;;;;14.30;3.90;;;12.60;99.90;;;;;;5094950;28;20399;-76
2022/09/17 00:18:12;;;;;;;17.77;4.90;;;12.60;99.90;;;;;;5094309;28;20753;-76
2022/09/17 00:20:43;;;;;;;14.90;3.50;;;12.60;99.90;;;;;;5094940;28;20432;-76
2022/09/17 00:23:10;;;;;;;17.53;3.60;;;12.60;99.90;;;;;;5076716;28;20494;-70
2022/09/17 00:25:43;;;;;;;12.83;3.03;;;12.70;99.90;;;;;;5076955;28;20411;-76
2022/09/17 00:28:10;;;;;;;13.50;3.83;;;12.70;99.90;;;;;;5093998;28;20461;-70
2022/09/17 00:30:39;;;;;;;13.00;3.97;;;12.80;99.90;;;;;;5094116;28;20454;-70
2022/09/17 00:33:05;;;;;;;21.90;3.43;;;12.80;99.90;;;;;;5094568;28;20446;-76
2022/09/17 00:35:31;;;;;;;15.57;3.77;;;12.70;99.90;;;;;;5093622;28;20404;-76
2022/09/17 00:37:57;;;;;;;17.30;3.17;;;12.60;99.90;;;;;;5093619;28;20216;-76
2022/09/17 00:40:23;;;;;;;11.87;3.00;;;12.70;99.90;;;;;;5094490;28;20492;-77
2022/09/17 00:42:52;;;;;;;16.93;3.63;;;12.60;99.90;;;;;;5094439;28;20426;-70
2022/09/17 00:45:18;;;;;;;27.33;4.67;;;12.60;99.90;;;;;;5094532;28;20256;-76
2022/09/17 00:47:54;;;;;;;9.63;3.73;;;12.70;99.90;;;;;;5092967;28;20490;-70
2022/09/17 00:50:35;;;;;;;28.10;4.20;;;12.70;99.90;;;;;;5094152;28;20442;-76
2022/09/17 00:53:07;;;;;;;10.93;3.37;;;12.80;99.90;;;;;;5094304;28;20892;-69
2022/09/17 00:55:36;;;;;;;28.30;5.43;;;12.70;99.90;;;;;;5094278;28;20407;-76
2022/09/17 00:58:07;;;;;;;18.83;4.50;;;12.80;99.90;;;;;;5093376;28;20540;-77
2022/09/17 01:00:38;;;;;;;15.67;3.70;;;12.80;99.90;;;;;;5094218;28;20435;-71
2022/09/17 01:03:04;;;;;;;15.17;3.90;;;12.80;99.90;;;;;;5093768;28;20407;-76
2022/09/17 01:05:38;;;;;;;9.30;3.33;;;12.70;99.90;;;;;;5093411;28;20400;-69
2022/09/17 01:08:27;;;;;;;21.27;5.97;;;12.80;99.90;;;;;;5093169;28;20271;-75
2022/09/17 01:11:13;;;;;;;21.10;4.07;;;12.90;99.90;;;;;;5093320;28;20931;-76
2022/09/17 01:14:04;;;;;;;16.90;3.00;;;12.90;99.90;;;;;;5093802;28;20899;-70
2022/09/17 01:16:57;;;;;;;21.77;5.00;;;12.90;99.90;;;;;;5093009;28;20814;-76
2022/09/17 01:19:46;;;;;;;12.63;3.10;;;13.00;99.90;;;;;;5093690;28;20442;-75
2022/09/17 01:22:34;;;;;;;13.03;3.80;;;12.90;99.90;;;;;;5093645;28;20887;-70
2022/09/17 01:25:00;;;;;;;11.60;2.80;;;12.90;99.90;;;;;;5092954;28;20979;-69
2022/09/17 01:28:28;;;;;;;23.83;3.90;;;13.00;99.90;;;;;;5093002;28;20500;-75
2022/09/17 01:31:11;;;;;;;9.43;2.60;;;13.00;99.90;;;;;;4991843;28;20677;-76
2022/09/17 01:33:57;;;;;;;17.23;3.47;;;13.10;99.90;;;;;;5084643;28;20407;-76
2022/09/17 01:36:48;;;;;;;9.83;2.80;;;13.10;99.90;;;;;;5074584;28;20408;-76
2022/09/17 01:43:03;;;;;;;15.37;3.93;;;13.00;99.90;;;;;;4991371;28;20483;-76
2022/09/17 01:45:49;;;;;;;15.03;3.23;;;13.10;99.90;;;;;;4991699;28;20762;-70
2022/09/17 01:48:22;;;;;;;15.40;4.13;;;13.10;99.90;;;;;;5092540;28;20419;-75
2022/09/17 01:50:56;;;;;;;20.67;3.97;;;13.00;99.90;;;;;;5093068;28;20439;-70
2022/09/17 01:53:34;;;;;;;16.00;3.67;;;12.90;99.90;;;;;;5093346;28;20856;-71
2022/09/17 01:56:02;;;;;;;13.70;3.67;;;12.90;99.90;;;;;;5092751;28;20399;-73
2022/09/17 01:58:34;;;;;;;17.60;3.17;;;12.90;99.90;;;;;;5093097;28;20494;-75
2022/09/17 02:01:07;;;;;;;14.47;3.90;;;12.90;99.90;;;;;;5092533;28;20374;-75
2022/09/17 02:03:41;;;;;;;15.90;3.40;;;12.80;99.90;;;;;;5093133;28;20487;-70
2022/09/17 02:06:14;;;;;;;17.67;3.10;;;12.90;99.90;;;;;;5092408;28;20491;-70
2022/09/17 02:08:53;;;;;;;12.73;2.83;;;12.80;99.90;;;;;;5092876;28;20419;-74
2022/09/17 02:11:20;;;;;;;19.30;4.83;;;12.80;99.90;;;;;;5093187;28;20492;-75
2022/09/17 02:13:55;;;;;;;13.77;3.03;;;12.70;99.90;;;;;;5093065;28;20404;-75
2022/09/17 02:16:25;;;;;;;8.20;3.30;;;12.70;99.90;;;;;;5092313;28;20399;-75
2022/09/17 02:19:01;;;;;;;15.77;4.33;;;12.70;99.90;;;;;;5092209;28;20837;-71
2022/09/17 02:21:45;;;;;;;17.57;4.77;;;12.60;99.90;;;;;;5093010;28;20377;-71
2022/09/17 02:24:35;;;;;;;10.53;2.50;;;12.60;99.90;;;;;;5092834;28;20416;-70
2022/09/17 02:27:18;;;;;;;14.53;3.60;;;12.60;99.90;;;;;;5092207;28;20492;-70
2022/09/17 02:29:44;;;;;;;12.87;2.77;;;12.60;99.90;;;;;;5092778;28;20443;-71
2022/09/17 02:32:12;;;;;;;17.63;2.80;;;12.60;99.90;;;;;;5074666;28;20412;-75
2022/09/17 02:34:38;;;;;;;11.50;2.90;;;12.50;99.90;;;;;;5092825;28;20197;-76
2022/09/17 02:37:05;;;;;;;10.67;2.80;;;12.50;99.90;;;;;;5073967;28;20793;-72
2022/09/17 02:39:31;;;;;;;16.20;3.10;;;12.50;99.90;;;;;;5092387;28;20941;-71
2022/09/17 02:42:37;;;;;;;15.00;2.73;;;12.50;99.90;;;;;;5092934;28;20413;-76
2022/09/17 02:45:18;;;;;;;12.87;3.23;;;12.50;99.90;;;;;;5091463;28;20728;-71
2022/09/17 02:48:03;;;;;;;14.10;2.57;;;12.50;99.90;;;;;;5092074;28;20411;-75
2022/09/17 02:50:49;;;;;;;19.17;3.67;;;12.60;99.90;;;;;;5092726;28;20451;-70
2022/09/17 02:53:33;;;;;;;9.50;2.97;;;12.50;99.90;;;;;;5092752;28;20385;-71
2022/09/17 02:56:16;;;;;;;10.27;2.60;;;12.50;99.90;;;;;;5092260;28;20378;-74
2022/09/17 02:59:18;;;;;;;13.07;2.90;;;12.50;99.90;;;;;;5093559;28;20447;-75
2022/09/17 03:02:01;;;;;;;9.63;2.97;;;12.50;99.90;;;;;;5078259;28;20524;-71
2022/09/17 03:04:28;;;;;;;10.10;2.50;;;12.50;99.90;;;;;;5096432;28;20378;-71
2022/09/17 03:06:55;;;;;;;19.87;4.57;;;12.50;99.90;;;;;;5095604;28;20427;-71
2022/09/17 03:09:21;;;;;;;11.60;2.90;;;12.40;99.90;;;;;;5096211;28;20948;-76
2022/09/17 03:11:47;;;;;;;9.10;2.87;;;12.40;99.90;;;;;;5096250;28;20492;-76
2022/09/17 03:14:13;;;;;;;5.67;2.57;;;12.40;99.90;;;;;;5096163;28;20177;-71
2022/09/17 03:16:39;;;;;;;12.90;2.83;;;12.40;99.90;;;;;;5094972;28;20478;-76
2022/09/17 03:19:04;;;;;;;11.73;3.33;;;12.30;99.90;;;;;;5095938;28;20419;-74
2022/09/17 03:21:30;;;;;;;12.47;3.70;;;12.40;99.90;;;;;;5095980;28;20923;-76
2022/09/17 03:23:59;;;;;;;13.23;2.47;;;12.30;99.90;;;;;;5078182;28;20181;-76
2022/09/17 03:26:25;;;;;;;9.50;3.23;;;12.30;99.90;;;;;;5095316;28;20193;-70
2022/09/17 03:28:51;;;;;;;21.97;3.77;;;12.20;99.90;;;;;;5095699;28;20423;-70
2022/09/17 03:31:17;;;;;;;9.07;2.40;;;12.10;99.90;;;;;;5095864;28;20412;-76
2022/09/17 03:33:43;;;;;;;9.40;2.87;;;12.10;99.90;;;;;;5095412;28;20400;-71
2022/09/17 03:36:09;;;;;;;7.03;2.23;;;12.00;99.90;;;;;;5095089;28;20169;-69
2022/09/17 03:38:37;;;;;;;10.33;2.63;;;12.10;99.90;;;;;;5077556;28;20251;-77
2022/09/17 03:41:06;;;;;;;18.80;4.67;;;12.10;99.90;;;;;;5095690;28;20893;-70
2022/09/17 03:43:32;;;;;;;10.90;2.50;;;12.00;99.90;;;;;;5095587;28;20407;-76
2022/09/17 03:45:59;;;;;;;8.47;2.63;;;12.00;99.90;;;;;;5095422;28;20764;-76
2022/09/17 03:48:25;;;;;;;9.17;2.30;;;12.00;99.90;;;;;;5095444;28;20427;-76
2022/09/17 03:50:51;;;;;;;16.33;3.10;;;12.00;99.90;;;;;;5095339;28;20490;-76
2022/09/17 03:53:17;;;;;;;10.30;2.70;;;11.90;99.90;;;;;;5094947;28;20403;-76
2022/09/17 03:55:43;;;;;;;12.30;3.83;;;11.80;99.90;;;;;;5095334;28;20370;-70
2022/09/17 03:58:09;;;;;;;18.47;3.37;;;11.80;99.90;;;;;;5076532;28;20426;-75
2022/09/17 04:00:37;;;;;;;11.93;3.13;;;11.80;99.90;;;;;;5095436;28;20493;-71
2022/09/17 04:03:04;;;;;;;8.10;3.30;;;11.80;99.90;;;;;;5077134;28;20416;-69
2022/09/17 04:05:30;;;;;;;9.60;3.23;;;11.80;99.90;;;;;;5095355;28;20941;-71
2022/09/17 04:07:56;;;;;;;11.07;2.97;;;11.70;99.90;;;;;;5094442;28;20398;-72
2022/09/17 04:10:22;;;;;;;12.50;3.17;;;11.70;99.90;;;;;;5076632;28;20422;-73
2022/09/17 04:12:48;;;;;;;12.23;3.33;;;11.80;99.90;;;;;;5095144;28;20196;-70
2022/09/17 04:15:14;;;;;;;7.47;3.40;;;11.70;99.90;;;;;;5095147;28;20432;-76
2022/09/17 04:17:39;;;;;;;5.87;2.27;;;11.60;99.90;;;;;;5094126;28;20454;-76
2022/09/17 04:20:06;;;;;;;13.53;3.07;;;11.60;99.90;;;;;;5095029;28;20248;-76
2022/09/17 04:22:32;;;;;;;12.80;2.60;;;11.50;99.90;;;;;;5095071;28;20249;-69
2022/09/17 04:24:58;;;;;;;8.33;3.23;;;11.60;99.90;;;;;;5076788;28;20447;-75
2022/09/17 04:27:24;;;;;;;14.97;2.83;;;11.50;99.90;;;;;;5093858;28;20438;-73
2022/09/17 04:33:42;;;;;;;10.47;2.70;;;11.40;99.90;;;;;;5094750;28;20387;-76
2022/09/17 04:36:08;;;;;;;7.80;3.10;;;11.40;99.90;;;;;;5093966;28;20430;-70
2022/09/17 04:38:37;;;;;;;12.50;2.13;;;11.40;99.90;;;;;;5094516;28;20449;-70
2022/09/17 04:41:06;;;;;;;14.67;3.83;;;11.30;99.90;;;;;;5094510;28;20173;-75
2022/09/17 04:43:33;;;;;;;22.97;3.23;;;11.40;99.90;;;;;;5094177;28;20377;-71
2022/09/17 04:45:58;;;;;;;11.90;3.27;;;11.30;99.90;;;;;;5093700;28;20408;-75
2022/09/17 04:48:24;;;;;;;12.67;2.67;;;11.30;99.90;;;;;;5094080;28;20401;-70
2022/09/17 04:50:50;;;;;;;8.23;2.40;;;11.20;99.90;;;;;;5094309;28;20246;-75
2022/09/17 04:53:17;;;;;;;19.40;6.83;;;11.20;99.90;;;;;;5094406;28;20170;-70
2022/09/17 04:55:43;;;;;;;11.37;2.23;;;11.20;99.90;;;;;;5094204;28;20797;-70
2022/09/17 04:58:09;;;;;;;14.03;2.30;;;11.20;99.90;;;;;;5093572;28;20387;-75
2022/09/17 05:00:35;;;;;;;13.97;2.87;;;11.10;99.90;;;;;;5094261;28;20421;-69
2022/09/17 05:03:02;;;;;;;15.53;2.80;;;11.10;99.90;;;;;;5093482;28;20408;-75
2022/09/17 05:05:28;;;;;;;10.50;3.23;;;11.00;99.90;;;;;;5094095;28;20891;-75
2022/09/17 05:07:54;;;;;;;12.63;2.87;;;10.90;99.90;;;;;;5093319;28;20401;-69
2022/09/17 05:10:21;;;;;;;10.27;2.77;;;11.00;99.90;;;;;;5093833;28;20204;-70
2022/09/17 05:12:48;;;;;;;14.80;2.87;;;11.00;99.90;;;;;;5094030;28;20611;-69
2022/09/17 05:15:14;;;;;;;10.43;2.93;;;10.90;99.90;;;;;;5075641;28;20412;-70
2022/09/17 05:17:40;;;;;;;9.77;2.93;;;10.90;99.90;;;;;;5075157;28;20386;-76
2022/09/17 05:20:06;;;;;;;12.03;2.57;;;10.90;99.90;;;;;;5075658;28;20204;-76
2022/09/17 05:22:31;;;;;;;13.70;2.93;;;10.90;99.90;;;;;;5092898;28;20534;-70
2022/09/17 05:24:57;;;;;;;18.30;2.77;;;10.90;99.90;;;;;;5093705;28;20465;-75
2022/09/17 05:27:23;;;;;;;8.40;3.17;;;10.80;99.90;;;;;;5093054;28;20193;-71
2022/09/17 05:29:49;;;;;;;13.57;3.03;;;10.90;99.90;;;;;;5075321;28;20206;-70
2022/09/17 05:32:14;;;;;;;18.20;3.53;;;10.90;99.90;;;;;;5093507;28;20370;-69
2022/09/17 05:34:40;;;;;;;8.87;2.70;;;10.80;99.90;;;;;;5093653;28;20214;-75
2022/09/17 05:37:10;;;;;;;15.13;3.27;;;10.80;99.90;;;;;;5075088;28;20182;-76
2022/09/17 05:39:36;;;;;;;14.83;3.23;;;10.90;99.90;;;;;;5074866;28;20299;-74
2022/09/17 05:42:02;;;;;;;8.27;3.33;;;10.90;99.90;;;;;;5075237;28;20498;-73
2022/09/17 05:44:28;;;;;;;6.90;2.57;;;10.90;99.90;;;;;;5093380;28;20581;-76
2022/09/17 05:46:53;;;;;;;9.80;3.30;;;10.80;99.90;;;;;;5092706;28;20172;-75
2022/09/17 05:49:19;;;;;;;18.20;2.73;;;10.90;99.90;;;;;;5093380;28;20243;-75
2022/09/17 05:51:45;;;;;;;6.03;1.90;;;11.00;99.90;;;;;;5075438;28;20248;-71
2022/09/17 05:54:17;;;;;;;5.07;2.20;;;11.10;99.90;;;;;;5093380;28;20374;-73
2022/09/17 05:56:42;;;;;;;7.97;3.10;;;11.10;99.90;;;;;;5074267;28;20623;-74
2022/09/17 05:59:08;;;;;;;11.10;2.70;;;11.10;99.90;;;;;;5092821;28;20422;-76
2022/09/17 06:01:34;;;;;;;14.00;2.97;;;11.10;99.90;;;;;;5075172;28;20258;-69
2022/09/17 06:04:03;;;;;;;13.27;3.30;;;11.00;99.90;;;;;;5075433;28;20173;-68
2022/09/17 06:06:29;;;;;;;21.73;4.80;;;11.00;99.90;;;;;;5092508;28;20170;-76
2022/09/17 06:08:58;;;;;;;11.80;3.37;;;11.10;99.90;;;;;;5092948;28;20406;-73
2022/09/17 06:11:24;;;;;;;8.23;2.40;;;11.10;99.90;;;;;;5093049;28;20418;-74
2022/09/17 06:13:54;;;;;;;11.60;4.70;;;11.10;99.90;;;;;;5093122;28;20398;-69
2022/09/17 06:16:21;;;;;;;13.37;2.70;;;11.10;99.90;;;;;;5092298;28;20169;-75
2022/09/17 06:18:48;;;;;;;11.67;4.50;;;11.10;99.90;;;;;;5074143;28;20402;-75
2022/09/17 06:21:16;;;;;;;14.30;3.20;;;11.10;99.90;;;;;;5093052;28;20765;-68
2022/09/17 06:23:42;;;;;;;13.90;3.13;;;11.10;99.90;;;;;;5074859;28;20404;-75
2022/09/17 06:26:08;;;;;;;15.40;3.10;;;11.10;99.90;;;;;;5092242;28;20367;-76
2022/09/17 06:28:35;;;;;;;11.73;3.03;;;11.10;99.90;;;;;;5092875;28;20395;-69
2022/09/17 06:33:52;;;;;;;13.03;3.70;;;11.20;99.90;;;;;;5076699;28;20381;-76
2022/09/17 06:36:18;;;;;;;12.77;2.37;;;11.30;99.90;;;;;;5095520;28;20367;-75
2022/09/17 06:39:05;;;;;;;10.97;3.40;;;11.40;99.90;;;;;;5078459;28;20209;-72
2022/09/17 06:41:30;;;;;;;15.20;3.33;;;11.40;99.90;;;;;;5096034;28;20178;-75
2022/09/17 06:44:15;;;;;;;8.67;2.70;;;11.50;99.90;;;;;;5078946;28;20400;-76
2022/09/17 06:46:56;;;;;;;21.50;3.37;;;11.60;99.90;;;;;;5095997;28;20203;-72
2022/09/17 06:49:23;;;;;;;8.83;2.77;;;11.70;99.90;;;;;;5096623;28;20425;-70
2022/09/17 06:51:49;;;;;;;10.73;4.17;;;11.80;99.90;;;;;;5096457;28;20375;-70
2022/09/17 06:54:33;;;;;;;12.83;3.80;;;11.80;99.90;;;;;;5096241;28;20995;-69
2022/09/17 06:56:59;;;;;;;7.70;3.10;;;11.90;99.90;;;;;;5095757;28;20173;-70
2022/09/17 06:59:25;;;;;;;13.67;3.20;;;12.00;99.90;;;;;;5078168;28;20431;-75
2022/09/17 07:01:51;;;;;;;15.87;3.73;;;12.00;99.90;;;;;;5096387;28;20469;-76
2022/09/17 07:04:17;;;;;;;10.53;2.80;;;12.10;99.90;;;;;;5096380;28;20487;-76
2022/09/17 07:06:44;;;;;;;10.33;2.20;;;12.20;99.90;;;;;;5095609;28;20499;-74
2022/09/17 07:09:11;;;;;;;7.10;2.10;;;12.30;99.90;;;;;;5096138;28;20453;-76
2022/09/17 07:11:37;;;;;;;19.50;3.73;;;12.40;99.90;;;;;;5095793;28;20404;-69
2022/09/17 07:14:04;;;;;;;10.60;2.83;;;12.50;99.90;;;;;;5077935;28;20859;-69
2022/09/17 07:16:34;;;;;;;18.17;2.63;;;12.60;99.90;;;;;;5095534;28;20760;-70
2022/09/17 07:19:03;;;;;;;9.37;2.63;;;12.60;99.90;;;;;;5095842;28;20420;-75
2022/09/17 07:21:29;;;;;;;13.10;3.70;;;12.70;99.90;;;;;;5077827;28;20408;-76
2022/09/17 07:23:55;;;;;;;13.00;3.17;;;12.80;99.90;;;;;;5096142;28;20477;-70
2022/09/17 07:26:21;;;;;;;13.57;3.00;;;12.80;99.90;;;;;;5095230;28;20403;-69
2022/09/17 07:28:49;;;;;;;9.70;3.00;;;12.90;99.90;;;;;;5085948;28;20195;-69
2022/09/17 07:31:15;;;;;;;7.10;2.67;;;12.90;99.20;;;;;;5077679;28;20521;-69
2022/09/17 07:33:41;;;;;;;9.50;3.23;;;13.00;93.20;;;;;;5095850;28;20396;-69
2022/09/17 07:36:10;;;;;;;16.27;2.37;;;13.10;94.90;;;;;;5095103;28;20400;-70
2022/09/17 07:38:37;;;;;;;9.43;2.60;;;13.20;93.20;;;;;;5077783;28;20439;-69
2022/09/17 07:41:11;;;;;;;3.00;1.50;;;13.30;93.30;;;;;;5095557;28;20404;-75
2022/09/17 07:43:37;;;;;;;3.77;2.00;;;13.40;93.30;;;;;;5077414;28;20419;-76
2022/09/17 07:46:14;;;;;;;6.93;2.30;;;13.40;93.30;;;;;;5075796;28;20811;-70
2022/09/17 07:48:43;;;;;;;7.60;2.00;;;13.30;92.40;;;;;;5095621;28;20520;-71
2022/09/17 07:51:27;;;;;;;7.20;2.43;;;13.30;89.10;;;;;;5095881;28;20462;-70
2022/09/17 07:53:54;;;;;;;4.73;1.90;;;13.30;86.90;;;;;;5077398;28;20404;-70
2022/09/17 07:56:20;;;;;;;6.53;1.90;;;13.40;82.80;;;;;;5094888;28;20404;-70
2022/09/17 07:58:46;;;;;;;6.67;2.13;;;13.50;83.60;;;;;;5094222;28;20443;-69
2022/09/17 08:01:22;;;;;;;5.90;1.43;;;13.60;93.40;;;;;;5077526;28;20411;-70
2022/09/17 08:03:50;;;;;;;3.90;1.57;;;13.70;84.00;;;;;;5095330;28;20418;-70
2022/09/17 08:06:18;;;;;;;4.33;2.07;;;13.80;86.70;;;;;;5093959;28;20378;-77
2022/09/17 08:08:44;;;;;;;8.07;2.07;;;13.90;74.50;;;;;;5095179;28;20481;-75
2022/09/17 08:11:13;;;;;;;7.70;1.83;;;14.00;58.20;;;;;;5095027;28;20847;-74
2022/09/17 08:13:52;;;;;;;6.90;2.00;;;14.10;76.10;;;;;;5095018;28;20760;-76
2022/09/17 08:16:18;;;;;;;12.13;2.20;;;14.20;55.70;;;;;;5094401;28;20405;-75
2022/09/17 08:18:47;;;;;;;15.00;2.13;;;14.30;52.60;;;;;;5095037;28;20408;-74
2022/09/17 08:21:17;;;;;;;9.20;3.73;;;14.50;56.90;;;;;;5095085;28;20756;-70
2022/09/17 08:23:46;;;;;;;10.23;2.10;;;14.60;53.60;;;;;;5094206;28;20399;-77
2022/09/17 08:26:35;;;;;;;9.00;2.27;;;14.60;13.30;;;;;;5094291;28;20767;-76
2022/09/17 08:29:01;;;;;;;10.90;2.23;;;14.50;24.20;;;;;;5081433;28;20447;-69
2022/09/17 08:32:15;;;;;;;14.40;2.57;;;14.40;16.40;;;;;;5076485;28;20404;-69
2022/09/17 08:35:24;;;;;;;13.33;2.37;;;14.40;1.00;;;;;;5076803;28;20407;-76
2022/09/17 08:37:53;;;;;;;4.63;2.13;;;14.50;13.60;;;;;;5046016;28;20915;-68
2022/09/17 08:40:21;;;;;;;9.70;1.90;;;14.50;1.00;;;;;;5076398;28;20427;-68
2022/09/17 08:42:53;;;;;;;9.50;1.77;;;14.40;1.00;;;;;;5094287;28;20435;-70
2022/09/17 08:45:22;;;;;;;6.37;2.10;;;14.40;1.00;;;;;;5094053;28;20399;-76
2022/09/17 08:47:48;;;;;;;5.53;1.80;;;14.60;1.00;;;;;;5093586;28;20400;-68
2022/09/17 08:50:25;;;;;;;8.90;1.83;;;14.60;1.00;;;;;;5076409;28;20490;-69
2022/09/17 08:53:16;;;;;;;13.90;2.23;;;14.70;1.00;;;;;;5094260;28;20406;-75
2022/09/17 08:55:49;;;;;;;6.20;1.80;;;14.80;1.00;;;;;;5075492;28;20407;-71
2022/09/17 08:58:34;;;;;;;5.87;1.63;;;14.90;1.00;;;;;;5075594;28;20475;-76
2022/09/17 09:01:24;;;;;;;12.30;2.53;;;15.10;1.00;;;;;;5075780;28;20923;-75
2022/09/17 09:04:02;;;;;;;5.83;1.63;;;15.40;1.00;;;;;;5093685;28;20502;-70
2022/09/17 09:06:45;;;;;;;9.47;1.80;;;15.90;1.00;;;;;;5093456;28;20387;-68
2022/09/17 09:09:15;;;;;;;10.27;2.77;;;16.20;1.00;;;;;;5093915;28;20527;-77
2022/09/17 09:11:42;;;;;;;7.83;1.70;;;16.20;1.00;;;;;;5093980;28;20403;-69
2022/09/17 09:14:20;;;;;;;9.10;2.10;;;16.10;1.00;;;;;;5093848;28;20402;-74
2022/09/17 09:16:47;;;;;;;6.13;1.47;;;16.30;1.00;;;;;;5093169;28;20799;-72
2022/09/17 09:19:21;;;;;;;7.57;1.40;;;16.70;1.00;;;;;;5075668;28;20439;-68
2022/09/17 09:22:22;;;;;;;7.90;1.93;;;16.60;1.00;;;;;;5093279;28;20438;-69
2022/09/17 09:25:25;;;;;;;6.40;1.93;;;16.10;1.00;;;;;;5093814;28;20465;-68
2022/09/17 09:28:17;;;;;;;11.20;2.60;;;15.90;1.00;;;;;;5092954;28;20940;-76
2022/09/17 09:31:18;;;;;;;12.80;2.33;;;15.90;1.00;;;;;;5093663;28;20458;-70
2022/09/17 09:33:46;;;;;;;5.80;1.33;;;15.90;1.00;;;;;;5053171;28;20407;-76
2022/09/17 09:36:15;;;;;;;7.13;1.90;;;15.80;1.00;;;;;;5092780;28;20415;-76
2022/09/17 09:38:57;;;;;;;7.60;1.53;;;15.80;1.00;;;;;;5075359;28;20804;-69
2022/09/17 09:41:35;;;;;;;8.80;2.60;;;15.70;1.00;;;;;;5092867;28;20400;-69
2022/09/17 09:44:09;;;;;;;6.40;1.77;;;15.70;1.00;;;;;;5075288;28;20422;-74
2022/09/17 09:53:57;;;;;;;10.00;1.57;;;15.50;1.00;;;;;;5093440;28;20387;-76
2022/09/17 09:56:58;;;;;;;5.50;2.93;;;15.50;1.00;;;;;;5074731;28;20841;-69
2022/09/17 09:59:25;;;;;;;10.63;2.13;;;15.60;1.00;;;;;;5079695;28;20438;-69
2022/09/17 10:01:51;;;;;;;2.60;1.80;;;15.70;1.00;;;;;;5093364;28;20502;-69
2022/09/17 10:04:19;;;;;;;7.60;1.80;;;15.80;1.00;;;;;;5075243;28;21026;-69
2022/09/17 10:06:47;;;;;;;10.47;1.80;;;15.90;1.00;;;;;;5074332;28;20922;-75
2022/09/17 10:09:16;;;;;;;5.90;1.60;;;15.90;1.00;;;;;;5074844;28;20840;-76
2022/09/17 10:11:57;;;;;;;4.83;2.03;;;15.70;1.00;;;;;;5075094;28;20823;-69
2022/09/17 10:14:26;;;;;;;14.17;2.40;;;15.70;1.00;;;;;;5093003;28;20540;-71
2022/09/17 10:17:15;;;;;;;8.33;2.13;;;16.30;1.00;;;;;;5073821;28;20435;-68
2022/09/17 10:23:05;;;;;;;7.40;1.67;;;17.60;1.00;;;;;;5000031;28;20508;-76
2022/09/17 10:25:40;;;;;;;7.00;1.83;;;17.70;1.00;;;;;;5092834;28;20404;-69
2022/09/17 10:28:35;;;;;;;12.53;1.97;;;18.10;1.00;;;;;;5092191;28;20423;-70
2022/09/17 10:31:15;;;;;;;;;;;;;;;;;;;;;
2022/09/17 10:34:32;;;;;;;9.80;2.00;;;19.30;1.00;;;;;;5092573;28;20421;-75
2022/09/17 10:37:00;;;;;;;6.33;2.13;;;19.60;1.00;;;;;;5073420;28;20416;-69
2022/09/17 10:39:35;;;;;;;11.93;1.93;;;20.20;1.00;;;;;;5074882;28;20460;-76
2022/09/17 10:42:11;;;;;;;10.13;2.00;;;20.70;1.00;;;;;;5074677;28;20407;-73
2022/09/17 10:44:48;;;;;;;6.27;2.17;;;21.30;1.00;;;;;;5074641;28;20502;-76
2022/09/17 10:47:21;;;;;;;6.60;1.47;;;21.20;1.00;;;;;;5092201;28;20494;-69
2022/09/17 10:49:54;;;;;;;11.47;2.70;;;20.80;1.00;;;;;;5074754;28;20467;-76
2022/09/17 10:52:25;;;;;;;2.50;1.37;;;20.60;1.00;;;;;;5074600;28;20414;-76
2022/09/17 10:55:14;;;;;;;5.00;1.90;;;19.90;1.00;;;;;;5092387;28;20403;-69
2022/09/17 10:58:07;;;;;;;3.13;1.33;;;18.90;1.00;;;;;;5091852;28;20410;-68
2022/09/17 11:00:48;;;;;;;5.83;1.50;;;18.80;1.00;;;;;;5092700;28;20434;-69
2022/09/17 11:03:37;;;;;;;6.90;1.70;;;18.90;1.00;;;;;;5092800;28;20411;-68
2022/09/17 11:06:25;;;;;;;7.37;1.83;;;18.30;1.00;;;;;;5074227;28;20498;-74
2022/09/17 11:09:09;;;;;;;5.33;2.30;;;17.90;1.00;;;;;;5074408;28;20450;-75
2022/09/17 11:12:05;;;;;;;4.53;1.50;;;17.70;1.00;;;;;;5092615;28;20406;-69
2022/09/17 11:14:51;;;;;;;7.90;2.83;;;17.80;1.00;;;;;;5074011;28;20414;-76
2022/09/17 11:17:48;;;;;;;3.77;1.30;;;17.90;1.00;;;;;;5074249;28;20458;-70
2022/09/17 11:20:21;;;;;;;6.90;1.80;;;17.70;1.00;;;;;;5055914;28;20458;-70
2022/09/17 11:26:31;;;;;;;3.07;2.30;;;16.80;1.00;;;;;;5095331;28;20421;-74
2022/09/17 11:29:40;;;;;;;11.63;2.53;;;16.30;1.00;;;;;;5077769;28;20455;-77
2022/09/17 11:32:37;;;;;;;;;;;;;;;;;;;;;
2022/09/17 11:35:36;;;;;;;3.10;1.53;;;15.30;1.00;;;;;;5095504;28;20404;-78
2022/09/17 11:45:11;;;;;;;3.53;1.80;;;14.70;1.00;;;;;;5095809;28;20557;-77
2022/09/17 11:48:36;;;;;;;7.40;2.60;;;14.70;1.00;;;;;;5076554;28;20407;-79
2022/09/17 11:54:53;;;;;;;5.20;1.90;;;14.50;8.60;;;;;;5033769;28;20417;-77
2022/09/17 11:57:31;;;;;;;10.57;2.10;;;14.70;21.00;;;;;;5054405;28;20907;-78
2022/09/17 12:00:15;;;;;;;3.27;1.80;;;14.70;24.00;;;;;;5094297;28;20427;-78
2022/09/17 12:03:03;;;;;;;4.77;1.40;;;14.70;23.40;;;;;;5095435;28;20435;-78
2022/09/17 12:05:46;;;;;;;3.10;1.40;;;14.70;26.40;;;;;;5095164;28;20403;-78
2022/09/17 12:08:33;;;;;;;3.33;1.30;;;14.70;22.90;;;;;;5076065;28;20415;-78
2022/09/17 12:21:37;;;;;;;3.00;1.33;;;14.70;50.90;;;;;;4941892;28;20411;-78
2022/09/17 12:24:53;;;;;;;1.60;1.50;;;14.70;65.10;;;;;;4981442;28;20435;-78
2022/09/17 12:31:49;;;;;;;;;;;;;;;;;;;;;
2022/09/17 12:34:54;;;;;;;5.07;1.50;;;14.90;80.60;;;;;;5031836;28;20414;-77
2022/09/17 12:44:31;;;;;;;2.43;1.47;;;15.00;93.80;;;;;;5031396;28;20433;-79
2022/09/17 13:01:35;;;;;;;8.30;1.90;;;14.40;68.60;;;;;;5011681;28;20430;-77
2022/09/17 13:04:38;;;;;;;2.17;1.00;;;14.30;86.30;;;;;;5019139;28;20471;-76
2022/09/17 13:17:38;;;;;;;3.03;1.30;;;14.10;91.50;;;;;;5093238;28;20383;-78
2022/09/17 13:51:31;;;;;;;3.70;2.07;;;14.20;99.90;;;;;;4860788;29;20514;-76
2022/09/17 13:54:51;;;;;;;4.00;2.20;;;14.00;99.90;;;;;;4890469;29;20415;-79
2022/09/17 14:04:59;;;;;;;1.97;1.30;;;13.80;94.70;;;;;;4976782;28;20465;-76
2022/09/17 14:11:29;;;;;;;1.40;1.30;;;13.60;99.90;;;;;;4954288;28;20457;-77
2022/09/17 14:17:57;;;;;;;5.83;1.57;;;13.50;99.90;;;;;;4928832;28;20423;-77
2022/09/17 14:20:25;;;;;;;1.40;1.30;;;13.60;99.90;;;;;;4929286;28;20421;-79
2022/09/17 14:22:59;;;;;;;1.27;1.00;;;13.70;99.90;;;;;;5043975;28;20421;-76
2022/09/17 14:26:07;;;;;;;9.57;2.43;;;13.80;99.90;;;;;;5072802;28;20401;-79
2022/09/17 14:41:55;;;;;;;1.53;1.03;;;14.30;99.90;;;;;;5024534;28;20763;-76
2022/09/17 14:47:16;;;;;;;1.27;1.10;;;14.60;99.90;;;;;;5083663;28;20519;-75
2022/09/17 14:50:32;;;;;;;2.40;0.93;;;14.60;99.90;;;;;;5072169;28;20452;-78
2022/09/17 14:53:17;;;;;;;2.40;1.00;;;14.50;95.20;;;;;;5072845;28;20432;-79
2022/09/17 14:55:52;;;;;;;1.10;1.00;;;14.50;93.70;;;;;;5077331;28;20411;-75
2022/09/17 14:58:37;;;;;;;1.50;1.10;;;14.40;93.60;;;;;;5074559;28;20495;-78
2022/09/17 15:01:05;;;;;;;1.07;0.97;;;14.30;86.70;;;;;;5076238;28;20458;-74
2022/09/17 15:03:31;;;;;;;1.40;1.00;;;14.20;75.20;;;;;;5062102;28;20427;-73
2022/09/17 15:06:19;;;;;;;1.20;0.90;;;14.30;94.70;;;;;;5057352;28;20567;-74
2022/09/17 15:08:45;;;;;;;2.30;1.23;;;14.30;93.30;;;;;;5070885;28;20811;-77
2022/09/17 15:11:30;;;;;;;1.40;1.03;;;14.30;93.10;;;;;;5090518;28;20484;-73
2022/09/17 15:13:57;;;;;;;4.80;1.67;;;14.30;93.60;;;;;;5076179;28;20403;-74
2022/09/17 15:16:48;;;;;;;2.20;1.10;;;14.30;80.60;;;;;;5080427;28;20423;-74
2022/09/17 15:19:24;;;;;;;1.43;0.83;;;14.10;77.40;;;;;;5094467;28;20455;-78
2022/09/17 15:22:02;;;;;;;1.57;1.33;;;14.00;82.70;;;;;;5086228;28;20426;-78
2022/09/17 15:24:55;;;;;;;2.13;1.60;;;13.90;93.40;;;;;;5058309;28;20454;-73
2022/09/17 15:27:29;;;;;;;3.13;0.90;;;13.90;90.90;;;;;;5083078;28;20424;-77
2022/09/17 15:30:39;;;;;;;1.63;1.07;;;13.90;90.80;;;;;;5096003;28;20845;-78
2022/09/17 15:33:08;;;;;;;2.53;1.23;;;13.80;93.40;;;;;;5092313;28;20412;-73
2022/09/17 15:35:34;;;;;;;1.53;1.40;;;13.50;93.30;;;;;;5064966;28;20432;-73
2022/09/17 15:38:04;;;;;;;1.60;0.93;;;12.90;89.50;;;;;;5105982;28;20418;-73
2022/09/17 15:40:38;;;;;;;1.13;1.03;;;12.50;78.60;;;;;;5109625;28;20181;-77
2022/09/17 15:43:16;;;;;;;1.57;0.87;;;12.30;74.10;;;;;;5116087;28;20384;-70
2022/09/17 15:45:42;;;;;;;0.90;0.80;;;12.20;66.70;;;;;;5094614;28;20430;-71
2022/09/17 15:48:26;;;;;;;2.10;1.00;;;12.10;77.30;;;;;;5076369;28;20449;-71
2022/09/17 15:50:54;;;;;;;4.40;1.33;;;11.90;84.60;;;;;;5077361;28;20441;-71